Time;durP1;ratioP1;P1;durP2;ratioP2;P2;SDS_P1;SDS_P2;PMS_P1;PMS_P2;Temp;Humidity;BMP_temperature;BMP_pressure;BME280_temperature;BME280_humidity;BME280_pressure;Samples;Min_cycle;Max_cycle;Signal;HPM_P1;HPM_P2
2022/06/04 00:01:29;;;;;;;15.40;10.77;;;;;;;18.92;82.81;95065.66;5054354;28;20211;-80
2022/06/04 00:03:55;;;;;;;15.95;12.38;;;;;;;18.90;82.90;95057.00;5044335;28;20645;-79
2022/06/04 00:06:22;;;;;;;16.42;11.27;;;;;;;18.88;82.55;95048.31;5052177;28;20682;-81
2022/06/04 00:08:49;;;;;;;14.65;11.15;;;;;;;18.93;82.18;95055.47;5053526;28;20203;-81
2022/06/04 00:16:47;;;;;;;14.07;8.90;;;;;;;18.90;82.03;95057.00;5053763;28;20199;-79
2022/06/04 00:19:14;;;;;;;13.23;7.75;;;;;;;18.91;82.34;95058.56;5052979;28;20719;-80
2022/06/04 00:21:41;;;;;;;15.95;8.95;;;;;;;18.93;82.25;95048.03;5053854;28;20285;-80
2022/06/04 00:24:08;;;;;;;13.52;10.80;;;;;;;18.90;82.42;95057.00;5053539;28;20241;-80
2022/06/04 00:26:35;;;;;;;16.38;11.15;;;;;;;18.82;82.40;95047.06;5053094;28;20838;-81
2022/06/04 00:29:05;;;;;;;14.07;10.73;;;;;;;18.78;82.98;95055.25;5052032;28;20250;-80
2022/06/04 00:31:32;;;;;;;11.57;9.48;;;;;;;18.66;83.67;95051.94;5053921;28;20224;-80
2022/06/04 00:33:58;;;;;;;12.27;8.40;;;;;;;18.56;84.15;95047.03;5053247;28;20237;-81
2022/06/04 00:36:25;;;;;;;13.18;8.15;;;;;;;18.56;83.98;95047.03;5054015;28;20208;-81
2022/06/04 00:38:52;;;;;;;8.90;7.45;;;;;;;18.60;83.76;95047.91;5052039;28;20771;-80
2022/06/04 00:41:30;;;;;;;13.68;8.77;;;;;;;18.58;83.68;95047.47;5052888;28;20636;-80
2022/06/04 00:44:02;;;;;;;18.73;8.85;;;;;;;18.53;83.88;95040.31;5040991;28;20570;-79
2022/06/04 00:47:05;;;;;;;13.68;7.95;;;;;;;18.50;83.81;95032.03;5053602;28;20192;-80
2022/06/04 00:49:32;;;;;;;17.17;11.35;;;;;;;18.52;84.56;95035.22;5053693;28;20230;-78
2022/06/04 00:51:59;;;;;;;13.75;11.18;;;;;;;18.46;84.79;95027.28;5053393;28;20254;-80
2022/06/04 00:54:28;;;;;;;20.38;11.75;;;;;;;18.37;84.64;95017.72;5053148;28;20231;-80
2022/06/04 00:57:05;;;;;;;15.40;11.13;;;;;;;18.40;85.14;95027.97;5052990;28;20235;-80
2022/06/04 00:59:41;;;;;;;15.40;9.45;;;;;;;18.34;84.87;95030.22;5053248;28;20195;-80
2022/06/04 01:02:27;;;;;;;18.48;12.00;;;;;;;18.38;84.87;95011.88;5052965;28;20220;-80
2022/06/04 01:05:02;;;;;;;17.42;12.73;;;;;;;18.42;84.23;95020.97;5039806;28;20203;-80
2022/06/04 01:07:47;;;;;;;14.25;9.27;;;;;;;18.40;84.23;95028.75;5053087;28;20199;-80
2022/06/04 01:10:32;;;;;;;16.73;7.97;;;;;;;18.35;84.21;95022.78;5052552;28;20192;-79
2022/06/04 01:13:12;;;;;;;14.50;9.07;;;;;;;18.36;84.56;95022.41;5052769;28;20247;-80
2022/06/04 01:15:52;;;;;;;14.80;8.98;;;;;;;18.25;85.17;95010.47;5053034;28;20195;-81
2022/06/04 01:18:34;;;;;;;17.08;12.68;;;;;;;18.23;85.17;95012.00;5052840;28;20192;-80
2022/06/04 01:21:11;;;;;;;14.05;9.07;;;;;;;18.21;85.38;95014.31;5052416;28;20223;-80
2022/06/04 01:24:11;;;;;;;15.20;9.40;;;;;;;18.24;84.33;95019.88;5052694;28;20254;-80
2022/06/04 01:27:01;;;;;;;14.05;7.68;;;;;;;18.26;84.38;95017.56;5052986;28;20261;-79
2022/06/04 01:29:32;;;;;;;12.38;9.07;;;;;;;18.26;84.04;95008.53;5040597;28;20645;-81
2022/06/04 01:32:05;;;;;;;11.70;7.43;;;;;;;18.22;84.03;95000.25;5053125;28;20234;-79
2022/06/04 01:34:38;;;;;;;13.68;7.50;;;;;;;18.19;84.16;95006.44;5053016;28;20216;-80
2022/06/04 01:37:10;;;;;;;12.43;7.55;;;;;;;18.12;84.03;94998.13;5052950;28;20331;-80
2022/06/04 01:42:31;;;;;;;11.38;8.35;;;;;;;18.01;85.17;95010.88;5041264;28;20376;-81
2022/06/04 01:45:02;;;;;;;13.32;8.60;;;;;;;17.89;85.17;95002.81;5052898;28;20254;-81
2022/06/04 01:47:30;;;;;;;16.27;11.43;;;;;;;17.87;85.22;95005.13;5052939;28;20238;-79
2022/06/04 01:49:59;;;;;;;13.02;7.55;;;;;;;17.92;85.83;95004.81;5052677;28;20347;-81
2022/06/04 01:52:31;;;;;;;14.48;8.50;;;;;;;17.94;85.79;95005.25;5052351;28;20286;-80
2022/06/04 01:55:03;;;;;;;15.13;7.63;;;;;;;17.93;85.60;95001.69;5052320;28;20239;-80
2022/06/04 01:57:36;;;;;;;11.48;7.30;;;;;;;17.77;85.30;94999.06;5052691;28;20196;-82
2022/06/04 02:00:09;;;;;;;17.10;11.18;;;;;;;17.89;84.79;95013.78;5052475;28;20581;-79
2022/06/04 02:02:40;;;;;;;14.80;8.38;;;;;;;17.79;84.16;95009.69;5052489;28;20203;-79
2022/06/04 02:05:13;;;;;;;10.18;6.88;;;;;;;17.52;85.11;95027.94;5052476;28;20207;-81
2022/06/04 02:07:44;;;;;;;12.70;8.02;;;;;;;17.61;85.19;95034.00;5052340;28;20681;-81
2022/06/04 02:10:15;;;;;;;10.95;7.68;;;;;;;17.60;85.05;95043.38;5052461;28;20188;-79
2022/06/04 02:12:46;;;;;;;14.70;7.97;;;;;;;17.36;86.11;95049.91;5050823;28;20658;-81
2022/06/04 02:15:17;;;;;;;13.50;7.85;;;;;;;17.11;86.98;95056.03;5050911;28;20293;-79
2022/06/04 02:17:46;;;;;;;10.07;6.63;;;;;;;17.13;87.84;95061.94;5033458;28;20548;-80
2022/06/04 02:20:14;;;;;;;11.05;7.15;;;;;;;17.02;88.80;95065.25;5040910;28;20228;-80
2022/06/04 02:22:42;;;;;;;15.77;7.13;;;;;;;17.05;88.79;95075.47;5050646;28;20220;-79
2022/06/04 02:25:12;;;;;;;14.73;7.18;;;;;;;17.17;88.41;95077.28;5051524;28;20204;-80
2022/06/04 02:27:40;;;;;;;12.18;7.93;;;;;;;17.31;88.18;95071.34;5038549;28;20246;-80
2022/06/04 02:30:13;;;;;;;10.32;7.10;;;;;;;17.35;87.76;95072.22;5051628;28;20793;-81
2022/06/04 02:32:46;;;;;;;11.00;7.65;;;;;;;17.33;87.39;95079.97;5051605;28;20298;-80
2022/06/04 02:35:20;;;;;;;13.80;10.02;;;;;;;17.38;87.50;95079.69;5051632;28;20223;-80
2022/06/04 02:37:54;;;;;;;13.40;9.95;;;;;;;17.44;87.00;95075.50;5051443;28;20223;-80
2022/06/04 02:40:27;;;;;;;12.63;8.43;;;;;;;17.61;86.21;95083.31;5051945;28;20195;-79
2022/06/04 02:43:02;;;;;;;11.70;6.82;;;;;;;17.66;85.91;95066.59;5050934;28;20662;-80
2022/06/04 02:45:34;;;;;;;11.55;6.68;;;;;;;17.68;85.61;95064.28;5038159;28;20639;-79
2022/06/04 02:48:09;;;;;;;14.90;7.32;;;;;;;17.61;86.07;95069.63;5051508;28;20224;-79
2022/06/04 02:50:40;;;;;;;11.68;7.40;;;;;;;17.67;85.92;95057.22;5051393;28;20234;-79
2022/06/04 02:53:09;;;;;;;11.07;7.47;;;;;;;17.57;86.44;95052.31;5051507;28;20333;-79
2022/06/04 02:55:42;;;;;;;12.45;7.15;;;;;;;17.52;87.06;95047.09;5051077;28;20520;-80
2022/06/04 02:58:13;;;;;;;14.68;8.27;;;;;;;17.57;86.96;95052.31;5051448;28;20338;-80
2022/06/04 03:00:43;;;;;;;16.95;8.13;;;;;;;17.51;87.53;95055.69;5051800;28;20281;-80
2022/06/04 03:03:12;;;;;;;12.43;7.45;;;;;;;17.82;86.47;95068.47;5051215;28;20658;-78
2022/06/04 03:05:40;;;;;;;10.70;7.85;;;;;;;18.04;85.84;95064.97;5051474;28;20199;-80
2022/06/04 03:08:07;;;;;;;17.48;11.23;;;;;;;18.23;84.86;95055.88;5051409;28;20291;-79
2022/06/04 03:10:37;;;;;;;11.63;7.85;;;;;;;18.51;83.92;95050.09;5051227;28;20682;-79
2022/06/04 03:13:04;;;;;;;15.43;8.75;;;;;;;18.89;82.20;95044.41;5050769;28;20234;-79
2022/06/04 03:15:31;;;;;;;12.40;7.43;;;;;;;19.34;80.64;95037.19;5050701;28;20238;-80
2022/06/04 03:17:59;;;;;;;10.00;7.85;;;;;;;19.88;78.71;95023.72;5051156;28;20261;-79
2022/06/04 03:20:27;;;;;;;12.63;7.82;;;;;;;20.44;76.62;95022.69;5050815;28;20234;-80
2022/06/04 03:22:55;;;;;;;13.68;8.00;;;;;;;21.05;74.30;95021.16;5051148;28;20205;-79
2022/06/04 03:25:22;;;;;;;14.95;10.30;;;;;;;21.75;71.40;95019.13;5051232;28;20212;-79
2022/06/04 03:27:49;;;;;;;10.88;6.90;;;;;;;22.31;69.74;95010.19;5042749;28;20728;-79
2022/06/04 03:30:17;;;;;;;10.40;6.43;;;;;;;22.94;68.45;95003.13;5054571;28;20227;-80
2022/06/04 03:32:45;;;;;;;14.20;9.25;;;;;;;23.25;66.17;94995.91;5054694;28;20260;-80
2022/06/04 03:35:14;;;;;;;9.60;7.28;;;;;;;23.42;65.54;95005.34;5053984;28;20235;-80
2022/06/04 03:37:41;;;;;;;10.80;7.40;;;;;;;23.58;64.60;95011.25;5039673;28;20651;-81
2022/06/04 03:40:09;;;;;;;10.02;6.97;;;;;;;24.16;63.02;95006.97;5036374;28;20315;-80
2022/06/04 03:42:35;;;;;;;13.10;9.73;;;;;;;24.93;59.80;95010.34;5053427;28;20345;-80
2022/06/04 03:45:02;;;;;;;12.25;8.95;;;;;;;24.87;60.10;95004.47;5059254;28;20624;-82
2022/06/04 03:47:33;;;;;;;11.85;7.22;;;;;;;25.53;58.04;95006.19;5055723;28;20208;-82
2022/06/04 03:49:59;;;;;;;11.57;9.25;;;;;;;26.22;55.54;95002.13;5055503;28;20311;-81
2022/06/04 03:52:28;;;;;;;10.98;8.95;;;;;;;26.68;54.21;94996.66;5054981;28;20228;-81
2022/06/04 03:54:55;;;;;;;13.98;9.60;;;;;;;26.43;55.14;95001.81;5054472;28;20281;-81
2022/06/04 03:57:41;;;;;;;12.18;9.02;;;;;;;27.37;53.08;95008.97;5055020;28;20241;-82
2022/06/04 04:00:13;;;;;;;10.70;8.50;;;;;;;27.71;51.66;94992.03;5042407;28;20196;-82
2022/06/04 04:02:41;;;;;;;12.45;8.77;;;;;;;28.39;50.03;95001.72;5054736;28;20200;-82
2022/06/04 04:05:11;;;;;;;10.38;9.07;;;;;;;29.13;48.40;95001.88;5054717;28;20208;-81
2022/06/04 04:07:39;;;;;;;10.15;8.23;;;;;;;29.19;47.97;95000.16;5054390;28;20563;-81
2022/06/04 04:10:08;;;;;;;12.43;8.93;;;;;;;29.68;46.72;95009.97;5038889;28;20212;-81
2022/06/04 04:12:35;;;;;;;8.32;6.95;;;;;;;30.28;46.27;95013.03;5050676;28;20223;-81
2022/06/04 04:15:02;;;;;;;8.85;6.72;;;;;;;29.86;46.26;95017.06;5054316;28;20227;-82
2022/06/04 04:17:30;;;;;;;10.60;7.90;;;;;;;29.15;47.62;95016.19;5054100;28;20274;-83
2022/06/04 04:19:57;;;;;;;10.05;8.38;;;;;;;28.65;48.44;95031.34;5054558;28;20733;-84
2022/06/04 04:22:24;;;;;;;10.85;9.02;;;;;;;28.77;48.44;95024.31;5054545;28;20204;-83
2022/06/04 04:24:56;;;;;;;12.98;9.90;;;;;;;29.05;47.99;95025.63;5054051;28;20678;-83
2022/06/04 04:27:22;;;;;;;12.05;9.27;;;;;;;30.07;45.65;95019.25;5054004;28;20191;-84
2022/06/04 04:29:49;;;;;;;13.68;9.18;;;;;;;29.93;46.35;95031.59;5053812;28;20230;-85
2022/06/04 04:32:16;;;;;;;14.00;9.57;;;;;;;29.85;46.50;95047.03;5052268;28;20211;-82
2022/06/04 04:34:43;;;;;;;13.38;9.77;;;;;;;29.84;46.13;95044.66;5046447;28;20274;-80
2022/06/04 04:37:12;;;;;;;10.90;8.98;;;;;;;30.11;45.88;95050.69;5054859;28;20204;-84
2022/06/04 04:39:39;;;;;;;16.63;10.60;;;;;;;30.56;44.78;95050.56;5054484;28;20227;-86
2022/06/04 04:42:07;;;;;;;11.05;9.65;;;;;;;28.89;48.27;95055.09;5054083;28;20729;-83
2022/06/04 04:44:37;;;;;;;12.57;10.48;;;;;;;29.58;46.92;95055.75;5055069;28;20274;-83
2022/06/04 04:47:19;;;;;;;13.15;9.88;;;;;;;29.24;47.70;95069.41;5065103;28;20235;-81
2022/06/04 04:53:00;;;;;;;12.55;10.38;;;;;;;29.22;48.22;95071.84;5061501;28;20265;-82
2022/06/04 04:55:27;;;;;;;15.50;10.70;;;;;;;28.35;49.53;95081.84;5057493;28;20239;-83
2022/06/04 04:58:07;;;;;;;20.65;12.23;;;;;;;28.24;50.84;95091.22;5064569;28;20208;-82
2022/06/04 05:00:45;;;;;;;13.63;11.32;;;;;;;28.85;49.14;95084.28;5059974;28;20253;-84
2022/06/04 05:03:12;;;;;;;16.33;11.90;;;;;;;29.04;48.86;95077.06;5055458;28;20616;-84
2022/06/04 05:05:39;;;;;;;15.35;12.35;;;;;;;29.80;47.01;95071.91;5055489;28;20204;-82
2022/06/04 05:08:06;;;;;;;16.13;12.60;;;;;;;29.97;46.67;95073.47;5056902;28;20203;-83
2022/06/04 05:10:33;;;;;;;14.32;11.98;;;;;;;30.96;44.49;95064.88;5062366;28;20687;-86
2022/06/04 05:13:01;;;;;;;16.60;11.73;;;;;;;31.39;43.59;95071.91;5055442;28;20239;-85
2022/06/04 05:15:31;;;;;;;15.43;12.20;;;;;;;30.77;44.66;95071.47;5054959;28;20235;-83
2022/06/04 05:17:58;;;;;;;14.63;11.50;;;;;;;31.22;43.68;95073.25;5054408;28;20224;-85
2022/06/04 05:20:24;;;;;;;14.55;11.50;;;;;;;32.61;41.13;95069.09;5058129;28;20261;-84
2022/06/04 05:22:51;;;;;;;17.85;11.70;;;;;;;32.82;40.70;95074.69;5057279;28;20211;-84
2022/06/04 05:25:18;;;;;;;18.77;11.95;;;;;;;31.74;42.15;95076.28;5054830;28;20277;-85
2022/06/04 05:27:48;;;;;;;16.20;12.75;;;;;;;31.18;43.39;95081.78;5055837;28;20223;-85
2022/06/04 05:30:16;;;;;;;13.85;11.10;;;;;;;30.60;45.68;95078.44;5057007;28;20204;-85
2022/06/04 05:32:43;;;;;;;16.58;11.15;;;;;;;30.80;44.40;95086.59;5062922;28;20235;-87
2022/06/04 05:38:19;;;;;;;14.38;11.55;;;;;;;30.15;46.09;95070.16;5059740;28;20250;-85
2022/06/04 05:40:45;;;;;;;14.45;12.38;;;;;;;30.29;45.61;95080.94;5042271;28;20231;-87
2022/06/04 05:43:12;;;;;;;17.55;12.48;;;;;;;30.53;45.65;95079.41;5060862;28;20306;-88
2022/06/04 05:45:41;;;;;;;18.70;13.20;;;;;;;30.03;46.11;95080.09;5059782;28;20219;-87
2022/06/04 05:48:17;;;;;;;16.50;12.32;;;;;;;31.38;44.15;95070.31;5057211;28;20208;-85
2022/06/04 05:50:49;;;;;;;14.13;11.35;;;;;;;31.04;43.95;95085.78;5052788;28;20242;-78
2022/06/04 05:53:16;;;;;;;12.77;10.75;;;;;;;31.03;43.97;95089.03;5042247;28;20231;-76
2022/06/04 05:55:46;;;;;;;16.30;11.77;;;;;;;31.69;42.54;95085.28;5051328;28;20281;-78
2022/06/04 05:58:13;;;;;;;13.65;11.32;;;;;;;30.04;45.71;95098.44;5051353;28;20208;-80
2022/06/04 06:00:41;;;;;;;15.13;11.68;;;;;;;30.29;46.15;95095.69;5052269;28;20219;-79
2022/06/04 06:03:09;;;;;;;16.67;10.75;;;;;;;31.17;44.09;95090.63;5052355;28;20226;-77
2022/06/04 06:05:42;;;;;;;15.60;11.13;;;;;;;31.71;42.78;95077.19;5047895;28;20216;-83
2022/06/04 06:08:19;;;;;;;11.75;9.75;;;;;;;32.68;41.07;95080.03;5036488;28;20223;-85
2022/06/04 06:10:48;;;;;;;13.43;9.75;;;;;;;33.18;39.26;95090.88;5040428;28;20708;-85
2022/06/04 06:13:15;;;;;;;14.52;10.25;;;;;;;32.32;40.89;95086.25;5045122;28;20693;-82
2022/06/04 06:15:50;;;;;;;17.60;10.35;;;;;;;32.57;40.39;95079.66;5037871;28;20239;-87
2022/06/04 06:18:20;;;;;;;15.23;10.45;;;;;;;31.40;42.31;95090.25;5046025;28;20191;-86
2022/06/04 06:20:47;;;;;;;12.55;10.93;;;;;;;31.41;42.59;95080.63;5045528;28;20192;-83
2022/06/04 06:23:17;;;;;;;14.40;10.20;;;;;;;31.88;41.61;95068.59;5042312;28;20220;-86
2022/06/04 06:25:43;;;;;;;12.55;9.82;;;;;;;31.58;42.69;95073.63;5044548;28;20269;-83
2022/06/04 06:28:10;;;;;;;16.80;10.98;;;;;;;31.07;43.16;95070.13;5041866;28;20188;-83
2022/06/04 06:30:37;;;;;;;15.90;10.48;;;;;;;30.10;45.81;95068.69;5042297;28;20670;-81
2022/06/04 06:33:06;;;;;;;24.63;12.63;;;;;;;29.33;48.03;95066.75;5042677;28;20188;-82
2022/06/04 06:35:32;;;;;;;20.60;12.02;;;;;;;29.18;49.76;95065.56;5041695;28;20632;-82
2022/06/04 06:38:02;;;;;;;15.68;10.80;;;;;;;30.34;45.92;95067.16;5041456;28;20505;-80
2022/06/04 06:40:29;;;;;;;15.68;10.57;;;;;;;30.94;43.53;95064.53;5041774;28;20227;-81
2022/06/04 06:42:56;;;;;;;14.95;10.60;;;;;;;31.64;42.27;95049.44;5040357;28;20192;-82
2022/06/04 06:45:23;;;;;;;13.73;10.32;;;;;;;33.16;40.14;95051.25;5044423;28;20278;-75
2022/06/04 06:47:49;;;;;;;14.25;9.95;;;;;;;33.61;38.57;95044.16;5042546;28;20212;-80
2022/06/04 06:50:18;;;;;;;14.52;9.85;;;;;;;33.39;39.44;95049.91;5039115;28;20203;-80
2022/06/04 06:52:45;;;;;;;15.13;10.13;;;;;;;33.79;38.14;95049.81;5043552;28;20220;-82
2022/06/04 06:55:12;;;;;;;16.67;11.50;;;;;;;35.03;36.74;95040.47;5051616;28;20466;-84
2022/06/04 06:57:39;;;;;;;15.00;9.82;;;;;;;35.64;34.82;95032.59;5051365;28;20688;-77
2022/06/04 07:00:07;;;;;;;11.68;9.05;;;;;;;35.22;36.64;95041.94;5047495;28;20195;-83
2022/06/04 07:02:33;;;;;;;17.15;8.90;;;;;;;35.60;34.74;95032.00;5044582;28;20207;-80
2022/06/04 07:05:00;;;;;;;13.13;7.85;;;;;;;36.07;33.46;95033.22;5050921;28;20211;-79
2022/06/04 07:07:29;;;;;;;10.70;8.20;;;;;;;36.25;33.07;95024.59;5050690;28;20781;-76
2022/06/04 07:09:56;;;;;;;10.43;7.05;;;;;;;35.64;34.45;95015.69;5050528;28;20318;-78
2022/06/04 07:12:23;;;;;;;13.57;7.35;;;;;;;35.96;34.13;95028.91;5042446;28;20216;-77
2022/06/04 07:14:49;;;;;;;9.77;7.40;;;;;;;34.71;35.76;95029.97;5042450;28;20239;-85
2022/06/04 07:17:16;;;;;;;13.68;7.30;;;;;;;33.38;37.75;95027.91;5045293;28;20208;-76
2022/06/04 07:19:43;;;;;;;10.27;7.80;;;;;;;33.53;37.48;95023.22;5043097;28;20223;-76
2022/06/04 07:22:11;;;;;;;7.45;6.18;;;;;;;33.12;39.65;95024.53;5039297;28;20282;-77
2022/06/04 07:24:39;;;;;;;7.88;5.53;;;;;;;33.53;37.63;95017.59;5035205;28;20232;-79
2022/06/04 07:27:08;;;;;;;8.20;6.43;;;;;;;32.02;40.18;95018.41;5041888;28;20223;-82
2022/06/04 07:29:35;;;;;;;8.00;6.55;;;;;;;32.06;41.69;95013.47;5038861;28;20223;-82
2022/06/04 07:32:02;;;;;;;8.23;6.65;;;;;;;31.75;40.97;95009.81;5042897;28;20195;-82
2022/06/04 07:34:29;;;;;;;8.25;6.47;;;;;;;32.03;41.03;94999.56;5041056;28;20586;-78
2022/06/04 07:36:55;;;;;;;9.57;6.90;;;;;;;32.65;39.81;94996.78;5042631;28;20721;-79
2022/06/04 07:39:23;;;;;;;7.15;6.05;;;;;;;32.81;39.19;94988.13;5038671;28;20216;-83
2022/06/04 07:41:53;;;;;;;10.07;6.40;;;;;;;32.30;39.68;94994.13;5048770;28;20223;-82
2022/06/04 07:44:22;;;;;;;7.45;5.80;;;;;;;32.17;39.33;95001.03;5040868;28;20266;-83
2022/06/04 07:46:50;;;;;;;13.57;5.90;;;;;;;31.92;40.62;95002.00;5037342;28;20202;-81
2022/06/04 07:49:18;;;;;;;9.90;5.85;;;;;;;32.62;38.62;94997.72;5036160;28;20831;-84
2022/06/04 07:51:46;;;;;;;9.40;6.13;;;;;;;32.52;40.04;94998.94;5041527;28;20261;-82
2022/06/04 07:54:14;;;;;;;9.43;5.85;;;;;;;32.08;40.89;94987.78;5041828;28;20315;-79
2022/06/04 07:56:41;;;;;;;13.93;5.88;;;;;;;32.38;40.43;94987.03;5045095;28;20243;-82
2022/06/04 07:59:13;;;;;;;13.27;5.63;;;;;;;32.12;39.90;94994.00;5039170;28;20836;-80
2022/06/04 08:01:40;;;;;;;10.73;6.15;;;;;;;31.12;42.89;94991.22;5039192;28;20185;-82
2022/06/04 08:04:06;;;;;;;6.70;5.03;;;;;;;31.33;43.11;94984.06;5039444;28;20188;-80
2022/06/04 08:06:33;;;;;;;7.60;6.15;;;;;;;31.58;41.65;94986.75;5037397;28;20188;-80
2022/06/04 08:09:00;;;;;;;9.75;5.90;;;;;;;31.37;42.11;94979.13;5045616;28;20223;-79
2022/06/04 08:11:35;;;;;;;7.32;5.15;;;;;;;30.47;41.97;94985.31;5037848;28;20270;-75
2022/06/04 08:14:07;;;;;;;8.98;5.50;;;;;;;30.08;43.52;94976.13;5052787;28;20781;-77
2022/06/04 08:16:36;;;;;;;8.13;5.30;;;;;;;30.16;43.10;94987.88;5053302;28;20216;-79
2022/06/04 08:19:03;;;;;;;7.22;4.88;;;;;;;30.35;42.49;94979.25;5053008;28;20220;-79
2022/06/04 08:21:30;;;;;;;7.82;4.82;;;;;;;30.10;43.01;94990.44;5053833;28;20292;-79
2022/06/04 08:23:56;;;;;;;10.20;5.30;;;;;;;30.83;43.29;94976.56;5053140;28;20203;-78
2022/06/04 08:26:23;;;;;;;8.13;5.10;;;;;;;30.84;42.54;94969.75;5052383;28;20284;-76
2022/06/04 08:28:52;;;;;;;11.48;5.43;;;;;;;31.34;42.45;94966.03;5052688;28;20265;-78
2022/06/04 08:31:19;;;;;;;7.40;4.90;;;;;;;29.71;41.92;94972.00;5053105;28;20223;-78
2022/06/04 08:33:48;;;;;;;8.50;4.80;;;;;;;30.51;42.42;94958.00;5052960;28;20273;-78
2022/06/04 08:36:16;;;;;;;6.43;4.90;;;;;;;30.62;41.79;94952.88;5052845;28;20698;-77
2022/06/04 08:38:44;;;;;;;6.47;5.40;;;;;;;30.67;41.72;94943.94;5052558;28;20749;-78
2022/06/04 08:41:21;;;;;;;8.43;4.93;;;;;;;30.42;43.04;94955.13;5052115;28;20274;-79
2022/06/04 08:43:54;;;;;;;9.02;5.18;;;;;;;29.68;42.57;94965.28;5048662;28;20212;-79
2022/06/04 08:46:28;;;;;;;10.68;4.53;;;;;;;29.87;43.48;94954.38;5044406;28;20187;-82
2022/06/04 08:49:00;;;;;;;9.23;4.25;;;;;;;29.62;40.46;94955.91;5040672;28;20725;-81
2022/06/04 08:51:30;;;;;;;6.68;5.28;;;;;;;29.48;43.72;94956.31;5049850;28;20535;-79
2022/06/04 08:57:32;;;;;;;10.63;4.95;;;;;;;29.03;43.22;94947.16;5041750;28;20199;-80
2022/06/04 08:59:40;;;;;;;6.60;4.07;;;;;;;28.39;43.42;94943.19;5052729;28;20611;-79
2022/06/04 09:02:16;;;;;;;7.60;4.90;;;;;;;28.23;44.56;94944.75;5052191;28;20188;-80
2022/06/04 09:04:52;;;;;;;5.70;3.80;;;;;;;28.58;44.32;94945.06;5051874;28;20223;-79
2022/06/04 09:07:24;;;;;;;6.03;4.78;;;;;;;28.71;45.27;94936.78;5052541;28;20334;-79
2022/06/04 09:09:59;;;;;;;8.45;5.00;;;;;;;28.40;45.67;94944.75;5052408;28;20216;-78
2022/06/04 09:12:36;;;;;;;6.68;4.80;;;;;;;28.48;45.97;94946.13;5052474;28;20191;-79
2022/06/04 09:15:06;;;;;;;6.47;4.70;;;;;;;28.52;45.91;94952.41;5052284;28;20183;-79
2022/06/04 09:17:42;;;;;;;7.13;5.35;;;;;;;28.75;46.03;94949.44;5052452;28;20688;-79
2022/06/04 09:20:22;;;;;;;7.10;4.70;;;;;;;29.32;44.75;94947.94;5052371;28;20629;-78
2022/06/04 09:22:53;;;;;;;10.73;4.78;;;;;;;29.48;43.60;94945.13;5052491;28;20230;-77
2022/06/04 09:25:24;;;;;;;7.85;4.45;;;;;;;29.55;44.26;94942.13;5052107;28;20226;-79
2022/06/04 09:28:02;;;;;;;6.93;4.75;;;;;;;29.49;45.30;94945.94;5038666;28;20699;-79
2022/06/04 09:30:36;;;;;;;6.47;4.55;;;;;;;30.04;43.32;94941.94;5052202;28;20227;-78
2022/06/04 09:33:30;;;;;;;5.88;4.05;;;;;;;29.62;42.85;94950.31;5052525;28;20318;-76
2022/06/04 09:35:59;;;;;;;4.80;3.97;;;;;;;30.09;41.19;94949.72;5038986;28;20236;-78
2022/06/04 09:38:28;;;;;;;5.13;3.88;;;;;;;30.75;40.21;94934.09;5052466;28;20207;-79
2022/06/04 09:41:01;;;;;;;5.95;4.28;;;;;;;30.16;41.01;94954.34;5056627;28;20208;-74
2022/06/04 09:43:29;;;;;;;5.25;4.22;;;;;;;30.00;40.95;94947.63;5052541;28;20192;-79
2022/06/04 09:46:00;;;;;;;9.80;4.30;;;;;;;31.40;39.99;94936.22;5052263;28;20207;-77
2022/06/04 09:48:31;;;;;;;5.72;4.32;;;;;;;32.57;38.41;94937.34;5052016;28;20234;-77
2022/06/04 09:51:01;;;;;;;5.80;4.20;;;;;;;32.57;36.79;94939.38;5052051;28;20199;-78
2022/06/04 09:53:31;;;;;;;9.63;4.00;;;;;;;32.37;36.65;94942.59;5051597;28;20196;-76
2022/06/04 09:56:06;;;;;;;4.53;4.10;;;;;;;31.02;37.94;94937.13;5050966;28;20219;-78
2022/06/04 09:58:35;;;;;;;5.05;4.00;;;;;;;31.01;40.75;94941.16;5038807;28;20199;-75
2022/06/04 10:01:04;;;;;;;7.07;5.00;;;;;;;31.31;39.85;94936.13;5050996;28;20669;-78
2022/06/04 10:03:36;;;;;;;5.07;4.28;;;;;;;31.27;39.53;94929.91;5051523;28;20541;-74
2022/06/04 10:06:07;;;;;;;7.10;4.50;;;;;;;30.97;40.74;94934.91;5051234;28;20227;-74
2022/06/04 10:11:19;;;;;;;6.00;4.30;;;;;;;30.23;40.59;94938.13;5050710;28;20569;-77
2022/06/04 10:13:49;;;;;;;8.88;4.20;;;;;;;30.12;41.13;94932.06;5051003;28;20231;-77
2022/06/04 10:16:19;;;;;;;7.80;4.20;;;;;;;29.96;41.43;94934.94;5050756;28;20862;-79
2022/06/04 10:18:56;;;;;;;5.55;4.22;;;;;;;30.28;41.36;94929.19;5051193;28;20242;-80
2022/06/04 10:21:27;;;;;;;8.77;4.55;;;;;;;30.85;40.00;94921.75;5051349;28;20265;-79
2022/06/04 10:23:57;;;;;;;6.30;4.72;;;;;;;30.95;39.32;94920.56;5051103;28;20230;-79
2022/06/04 10:26:50;;;;;;;9.95;4.90;;;;;;;31.32;39.98;94918.88;5050294;28;20550;-81
2022/06/04 10:29:39;;;;;;;5.78;4.50;;;;;;;30.99;40.82;94915.66;5050412;28;20322;-79
2022/06/04 10:32:29;;;;;;;6.38;5.40;;;;;;;31.13;40.99;94913.63;5046750;28;20593;-79
2022/06/04 10:35:07;;;;;;;5.45;4.60;;;;;;;30.87;40.31;94908.06;5050471;28;20224;-80
2022/06/04 10:37:48;;;;;;;5.80;5.05;;;;;;;31.56;41.17;94902.44;5039361;28;20598;-76
2022/06/04 10:40:40;;;;;;;6.45;5.38;;;;;;;31.12;42.05;94900.84;5050844;28;20277;-79
2022/06/04 10:43:22;;;;;;;15.10;7.20;;;;;;;30.98;40.93;94896.50;5051344;28;20215;-79
2022/06/04 10:45:55;;;;;;;9.90;5.50;;;;;;;31.00;41.60;94894.81;5061664;28;20717;-79
2022/06/04 10:48:33;;;;;;;8.18;5.03;;;;;;;31.14;40.67;94893.56;5050838;28;20207;-77
2022/06/04 10:54:04;;;;;;;7.88;5.30;;;;;;;29.62;43.55;94905.63;5050813;28;20221;-77
2022/06/04 10:56:37;;;;;;;7.82;5.38;;;;;;;29.73;44.94;94893.34;5050585;28;20223;-79
2022/06/04 10:59:07;;;;;;;10.52;5.82;;;;;;;30.18;44.22;94887.59;5051107;28;20196;-78
2022/06/04 11:01:40;;;;;;;7.35;5.53;;;;;;;30.33;44.38;94881.09;5049993;28;20223;-79
2022/06/04 11:04:18;;;;;;;8.10;5.57;;;;;;;31.12;42.52;94881.25;5051038;28;20259;-78
2022/06/04 11:06:50;;;;;;;6.40;5.22;;;;;;;30.70;42.54;94865.47;5050215;28;20226;-77
2022/06/04 11:09:22;;;;;;;6.93;4.90;;;;;;;30.61;42.08;94867.41;5050506;28;20718;-76
2022/06/04 11:11:54;;;;;;;9.57;5.65;;;;;;;30.32;42.42;94868.34;5050466;28;20617;-76
2022/06/04 11:14:28;;;;;;;8.82;5.78;;;;;;;30.45;40.92;94862.72;5050236;28;20645;-75
2022/06/04 11:17:00;;;;;;;9.10;6.00;;;;;;;30.49;41.77;94859.78;5050468;28;20709;-81
2022/06/04 11:19:34;;;;;;;6.20;5.55;;;;;;;30.74;42.04;94866.16;5051034;28;20563;-78
2022/06/04 11:22:05;;;;;;;7.28;5.65;;;;;;;30.24;42.34;94855.81;5050466;28;20314;-76
2022/06/04 11:24:40;;;;;;;8.40;5.50;;;;;;;30.12;41.93;94859.41;5050619;28;20195;-76
2022/06/04 11:27:12;;;;;;;9.70;5.80;;;;;;;30.48;41.40;94864.59;5050325;28;20222;-79
2022/06/04 11:29:40;;;;;;;7.22;5.35;;;;;;;31.26;39.56;94866.75;5048403;28;20657;-75
2022/06/04 11:32:13;;;;;;;8.55;5.07;;;;;;;31.17;40.40;94852.66;5048823;28;20570;-78
2022/06/04 11:35:11;;;;;;;10.02;5.30;;;;;;;29.91;41.25;94868.47;5050782;28;20269;-73
2022/06/04 11:38:03;;;;;;;7.43;5.07;;;;;;;30.18;41.37;94863.22;5038844;28;20289;-74
2022/06/04 11:40:35;;;;;;;10.43;6.30;;;;;;;30.16;42.36;94854.50;5028843;28;20219;-70
2022/06/04 11:43:09;;;;;;;8.18;6.60;;;;;;;30.14;42.76;94848.56;5049941;28;20223;-78
2022/06/04 11:46:04;;;;;;;7.15;6.38;;;;;;;29.82;42.98;94862.75;5048804;28;20229;-79
2022/06/04 11:48:53;;;;;;;12.18;7.40;;;;;;;29.73;44.31;94857.03;5053585;28;20195;-79
2022/06/04 11:51:34;;;;;;;8.45;6.50;;;;;;;30.31;43.79;94849.22;5052646;28;20715;-76
2022/06/04 11:54:16;;;;;;;7.88;6.47;;;;;;;30.31;41.34;94833.22;5052776;28;20600;-79
2022/06/04 11:56:55;;;;;;;9.70;6.63;;;;;;;30.12;43.05;94842.66;5046351;28;20219;-80
2022/06/04 11:59:38;;;;;;;9.32;7.28;;;;;;;30.54;41.52;94839.69;5046276;28;20215;-77
2022/06/04 12:02:14;;;;;;;9.60;6.82;;;;;;;30.97;41.21;94845.34;5043543;28;20315;-75
2022/06/04 12:04:46;;;;;;;8.23;6.43;;;;;;;31.56;40.40;94835.19;5050465;28;20250;-74
2022/06/04 12:07:16;;;;;;;8.90;6.95;;;;;;;31.62;40.17;94833.34;5042727;28;20272;-78
2022/06/04 12:10:03;;;;;;;9.48;6.97;;;;;;;30.71;40.96;94844.66;5052459;28;20851;-75